DWD Radarbild

   
[Quelle: ADDS]
METAR
EDLP 211220Z 22014KT 9999 FEW025 BKN057 13/10 Q1008 =
EDLP 211100Z 2112/2212 24015G30KT 9999 SCT045 PROB40 TEMPO 2112/2116 26020G40KT BECMG 2116/2119 25012KT PROB40 TEMPO 2119/2202 25015G25KT BECMG 2207/2210 24015G25KT
TAF
EDLP 211100Z 2112/2212 24015G30KT 9999 SCT045 PROB40 TEMPO 2112/2116 26020G40KT BECMG 2116/2119 25012KT PROB40 TEMPO 2119/2202 25015G25KT BECMG 2207/2210 24015G25KT =
   
   

Meine WettercamWettercam aus Bielefeld Senne - Blickrichtung Süd-Ostjede Min. ein neues Bild

   
Moon phase
Phase:
Zunehmend

Mondphase:
88%

Alter:
11 Tage

Entfernung:
251,536 Km

Zeit:
14:52:43

Datum:
21-09-2018

   
<<  Sep 2018  >>
 Mo  Di  Mi  Do  Fr  Sa  So 
       1  2
  3  4  5  7  8  9
10111213141516
17181920212223
24252627282930